sensor_id;sensor_type;location;lat;lon;timestamp;temperature;humidity
3281;DHT22;1652;51.318;6.202;2022-12-07T00:01:24;4.80;99.90
3281;DHT22;1652;51.318;6.202;2022-12-07T00:03:54;4.90;99.90
3281;DHT22;1652;51.318;6.202;2022-12-07T00:06:24;4.90;99.90
3281;DHT22;1652;51.318;6.202;2022-12-07T00:08:51;4.90;99.90
3281;DHT22;1652;51.318;6.202;2022-12-07T00:11:22;5.00;99.90
3281;DHT22;1652;51.318;6.202;2022-12-07T00:13:54;4.90;99.90
3281;DHT22;1652;51.318;6.202;2022-12-07T00:16:23;5.00;99.90
3281;DHT22;1652;51.318;6.202;2022-12-07T00:18:50;5.00;99.90
3281;DHT22;1652;51.318;6.202;2022-12-07T00:21:20;5.00;99.90
3281;DHT22;1652;51.318;6.202;2022-12-07T00:23:48;5.00;99.90
3281;DHT22;1652;51.318;6.202;2022-12-07T00:26:36;5.10;99.90
3281;DHT22;1652;51.318;6.202;2022-12-07T00:29:12;5.10;99.90
3281;DHT22;1652;51.318;6.202;2022-12-07T00:31:39;5.10;99.90
3281;DHT22;1652;51.318;6.202;2022-12-07T00:34:07;5.20;99.90
3281;DHT22;1652;51.318;6.202;2022-12-07T00:36:34;5.20;99.90
3281;DHT22;1652;51.318;6.202;2022-12-07T00:39:01;5.10;99.90
3281;DHT22;1652;51.318;6.202;2022-12-07T00:41:29;5.20;99.90
3281;DHT22;1652;51.318;6.202;2022-12-07T00:43:57;5.10;99.90
3281;DHT22;1652;51.318;6.202;2022-12-07T00:46:24;5.10;99.90
3281;DHT22;1652;51.318;6.202;2022-12-07T00:48:52;5.10;99.90
3281;DHT22;1652;51.318;6.202;2022-12-07T00:51:22;5.10;99.90
3281;DHT22;1652;51.318;6.202;2022-12-07T00:53:49;5.10;99.90
3281;DHT22;1652;51.318;6.202;2022-12-07T00:56:27;5.10;99.90
3281;DHT22;1652;51.318;6.202;2022-12-07T00:59:01;5.10;99.90
3281;DHT22;1652;51.318;6.202;2022-12-07T01:01:32;5.10;99.90
3281;DHT22;1652;51.318;6.202;2022-12-07T01:03:59;5.10;99.90
3281;DHT22;1652;51.318;6.202;2022-12-07T01:06:28;5.10;99.90
3281;DHT22;1652;51.318;6.202;2022-12-07T01:08:55;5.10;99.90
3281;DHT22;1652;51.318;6.202;2022-12-07T01:11:25;4.90;99.90
3281;DHT22;1652;51.318;6.202;2022-12-07T01:13:53;4.90;99.90
3281;DHT22;1652;51.318;6.202;2022-12-07T01:16:21;4.80;99.90
3281;DHT22;1652;51.318;6.202;2022-12-07T01:18:50;4.80;99.90
3281;DHT22;1652;51.318;6.202;2022-12-07T01:21:25;4.80;99.90
3281;DHT22;1652;51.318;6.202;2022-12-07T01:23:53;4.70;99.90
3281;DHT22;1652;51.318;6.202;2022-12-07T01:26:22;4.70;99.90
3281;DHT22;1652;51.318;6.202;2022-12-07T01:28:50;4.70;99.90
3281;DHT22;1652;51.318;6.202;2022-12-07T01:31:19;4.80;99.90
3281;DHT22;1652;51.318;6.202;2022-12-07T01:33:52;4.80;99.90
3281;DHT22;1652;51.318;6.202;2022-12-07T01:38:56;4.70;99.90
3281;DHT22;1652;51.318;6.202;2022-12-07T01:41:25;4.70;99.90
3281;DHT22;1652;51.318;6.202;2022-12-07T01:44:26;4.80;99.90
3281;DHT22;1652;51.318;6.202;2022-12-07T01:46:57;4.80;99.90
3281;DHT22;1652;51.318;6.202;2022-12-07T01:49:41;4.70;99.90
3281;DHT22;1652;51.318;6.202;2022-12-07T01:52:30;4.60;99.90
3281;DHT22;1652;51.318;6.202;2022-12-07T01:55:00;4.50;99.90
3281;DHT22;1652;51.318;6.202;2022-12-07T01:57:29;4.40;99.90
3281;DHT22;1652;51.318;6.202;2022-12-07T01:59:57;4.50;99.90
3281;DHT22;1652;51.318;6.202;2022-12-07T02:02:54;4.50;99.90
3281;DHT22;1652;51.318;6.202;2022-12-07T02:05:23;4.60;99.90
3281;DHT22;1652;51.318;6.202;2022-12-07T02:07:53;4.60;99.90
3281;DHT22;1652;51.318;6.202;2022-12-07T02:10:27;4.60;99.90
3281;DHT22;1652;51.318;6.202;2022-12-07T02:13:24;4.70;99.90
3281;DHT22;1652;51.318;6.202;2022-12-07T02:21:43;4.70;99.90
3281;DHT22;1652;51.318;6.202;2022-12-07T02:24:23;4.70;99.90
3281;DHT22;1652;51.318;6.202;2022-12-07T02:26:55;4.70;99.90
3281;DHT22;1652;51.318;6.202;2022-12-07T02:29:39;4.60;99.90
3281;DHT22;1652;51.318;6.202;2022-12-07T02:32:27;4.50;99.90
3281;DHT22;1652;51.318;6.202;2022-12-07T02:35:17;4.50;99.90
3281;DHT22;1652;51.318;6.202;2022-12-07T02:37:57;4.50;99.90
3281;DHT22;1652;51.318;6.202;2022-12-07T02:40:32;4.50;99.90
3281;DHT22;1652;51.318;6.202;2022-12-07T02:45:44;4.60;99.90
3281;DHT22;1652;51.318;6.202;2022-12-07T02:48:14;4.60;99.90
3281;DHT22;1652;51.318;6.202;2022-12-07T02:50:52;4.60;99.90
3281;DHT22;1652;51.318;6.202;2022-12-07T02:53:36;4.60;99.90
3281;DHT22;1652;51.318;6.202;2022-12-07T02:56:22;4.60;99.90
3281;DHT22;1652;51.318;6.202;2022-12-07T02:59:23;4.60;99.90
3281;DHT22;1652;51.318;6.202;2022-12-07T03:02:14;4.50;99.90
3281;DHT22;1652;51.318;6.202;2022-12-07T03:07:53;4.50;99.90
3281;DHT22;1652;51.318;6.202;2022-12-07T03:14:00;4.60;99.90
3281;DHT22;1652;51.318;6.202;2022-12-07T03:16:35;4.60;99.90
3281;DHT22;1652;51.318;6.202;2022-12-07T03:19:24;4.50;99.90
3281;DHT22;1652;51.318;6.202;2022-12-07T03:22:04;4.50;99.90
3281;DHT22;1652;51.318;6.202;2022-12-07T03:25:06;4.50;99.90
3281;DHT22;1652;51.318;6.202;2022-12-07T03:27:46;4.50;99.90
3281;DHT22;1652;51.318;6.202;2022-12-07T03:30:24;4.50;99.90
3281;DHT22;1652;51.318;6.202;2022-12-07T03:33:01;4.30;99.90
3281;DHT22;1652;51.318;6.202;2022-12-07T03:35:33;4.20;99.90
3281;DHT22;1652;51.318;6.202;2022-12-07T03:38:18;4.20;99.90
3281;DHT22;1652;51.318;6.202;2022-12-07T03:41:12;4.10;99.90
3281;DHT22;1652;51.318;6.202;2022-12-07T03:43:41;4.00;99.90
3281;DHT22;1652;51.318;6.202;2022-12-07T03:55:16;3.80;99.90
3281;DHT22;1652;51.318;6.202;2022-12-07T03:57:46;3.80;99.90
3281;DHT22;1652;51.318;6.202;2022-12-07T04:00:15;3.90;99.90
3281;DHT22;1652;51.318;6.202;2022-12-07T04:02:42;3.90;99.90
3281;DHT22;1652;51.318;6.202;2022-12-07T04:05:10;3.90;99.90
3281;DHT22;1652;51.318;6.202;2022-12-07T04:07:37;4.10;99.90
3281;DHT22;1652;51.318;6.202;2022-12-07T04:10:05;4.10;99.90
3281;DHT22;1652;51.318;6.202;2022-12-07T04:12:31;4.20;99.90
3281;DHT22;1652;51.318;6.202;2022-12-07T04:14:58;4.20;99.90
3281;DHT22;1652;51.318;6.202;2022-12-07T04:17:25;4.30;99.90
3281;DHT22;1652;51.318;6.202;2022-12-07T04:19:52;4.30;99.90
3281;DHT22;1652;51.318;6.202;2022-12-07T04:22:18;4.30;99.90
3281;DHT22;1652;51.318;6.202;2022-12-07T04:24:45;4.30;99.90
3281;DHT22;1652;51.318;6.202;2022-12-07T04:27:12;4.40;99.90
3281;DHT22;1652;51.318;6.202;2022-12-07T04:29:39;4.40;99.90
3281;DHT22;1652;51.318;6.202;2022-12-07T04:32:06;4.40;99.90
3281;DHT22;1652;51.318;6.202;2022-12-07T04:34:32;4.40;99.90
3281;DHT22;1652;51.318;6.202;2022-12-07T04:36:59;4.40;99.90
3281;DHT22;1652;51.318;6.202;2022-12-07T04:39:30;4.40;99.90
3281;DHT22;1652;51.318;6.202;2022-12-07T04:41:58;4.40;99.90
3281;DHT22;1652;51.318;6.202;2022-12-07T04:44:26;4.50;99.90
3281;DHT22;1652;51.318;6.202;2022-12-07T04:46:54;4.30;99.90
3281;DHT22;1652;51.318;6.202;2022-12-07T04:49:21;4.20;99.90
3281;DHT22;1652;51.318;6.202;2022-12-07T04:51:49;4.20;99.90
3281;DHT22;1652;51.318;6.202;2022-12-07T04:54:16;4.10;99.90
3281;DHT22;1652;51.318;6.202;2022-12-07T04:56:43;4.00;99.90
3281;DHT22;1652;51.318;6.202;2022-12-07T04:59:12;4.00;99.90
3281;DHT22;1652;51.318;6.202;2022-12-07T05:01:39;3.90;99.90
3281;DHT22;1652;51.318;6.202;2022-12-07T05:04:07;4.00;99.90
3281;DHT22;1652;51.318;6.202;2022-12-07T05:06:34;3.90;99.90
3281;DHT22;1652;51.318;6.202;2022-12-07T05:09:01;4.00;99.90
3281;DHT22;1652;51.318;6.202;2022-12-07T05:11:28;4.00;99.90
3281;DHT22;1652;51.318;6.202;2022-12-07T05:14:18;4.00;99.90
3281;DHT22;1652;51.318;6.202;2022-12-07T05:16:47;3.90;99.90
3281;DHT22;1652;51.318;6.202;2022-12-07T05:19:14;4.00;99.90
3281;DHT22;1652;51.318;6.202;2022-12-07T05:21:41;4.00;99.90
3281;DHT22;1652;51.318;6.202;2022-12-07T05:24:10;4.00;99.90
3281;DHT22;1652;51.318;6.202;2022-12-07T05:26:38;4.10;99.90
3281;DHT22;1652;51.318;6.202;2022-12-07T05:29:05;4.10;99.90
3281;DHT22;1652;51.318;6.202;2022-12-07T05:31:32;4.10;99.90
3281;DHT22;1652;51.318;6.202;2022-12-07T05:33:59;4.20;99.90
3281;DHT22;1652;51.318;6.202;2022-12-07T05:36:26;4.20;99.90
3281;DHT22;1652;51.318;6.202;2022-12-07T05:38:55;4.30;99.90
3281;DHT22;1652;51.318;6.202;2022-12-07T05:41:22;4.20;99.90
3281;DHT22;1652;51.318;6.202;2022-12-07T05:44:07;4.20;99.90
3281;DHT22;1652;51.318;6.202;2022-12-07T05:46:34;4.20;99.90
3281;DHT22;1652;51.318;6.202;2022-12-07T05:49:02;4.20;99.90
3281;DHT22;1652;51.318;6.202;2022-12-07T05:51:29;4.20;99.90
3281;DHT22;1652;51.318;6.202;2022-12-07T05:53:56;4.30;99.90
3281;DHT22;1652;51.318;6.202;2022-12-07T05:56:23;4.40;99.90
3281;DHT22;1652;51.318;6.202;2022-12-07T05:58:49;4.30;99.90
3281;DHT22;1652;51.318;6.202;2022-12-07T06:01:35;4.30;99.90
3281;DHT22;1652;51.318;6.202;2022-12-07T06:04:02;4.40;99.90
3281;DHT22;1652;51.318;6.202;2022-12-07T06:06:29;4.40;99.90
3281;DHT22;1652;51.318;6.202;2022-12-07T06:08:55;4.40;99.90
3281;DHT22;1652;51.318;6.202;2022-12-07T06:11:22;4.40;99.90
3281;DHT22;1652;51.318;6.202;2022-12-07T06:14:08;4.40;99.90
3281;DHT22;1652;51.318;6.202;2022-12-07T06:16:34;4.40;99.90
3281;DHT22;1652;51.318;6.202;2022-12-07T06:19:01;4.40;99.90
3281;DHT22;1652;51.318;6.202;2022-12-07T06:21:28;4.40;99.90
3281;DHT22;1652;51.318;6.202;2022-12-07T06:23:55;4.40;99.90
3281;DHT22;1652;51.318;6.202;2022-12-07T06:26:22;4.40;99.90
3281;DHT22;1652;51.318;6.202;2022-12-07T06:28:49;4.40;99.90
3281;DHT22;1652;51.318;6.202;2022-12-07T06:31:16;4.40;99.90
3281;DHT22;1652;51.318;6.202;2022-12-07T06:33:43;4.30;99.90
3281;DHT22;1652;51.318;6.202;2022-12-07T06:36:10;4.10;99.90
3281;DHT22;1652;51.318;6.202;2022-12-07T06:38:37;4.00;99.90
3281;DHT22;1652;51.318;6.202;2022-12-07T06:41:04;3.90;99.90
3281;DHT22;1652;51.318;6.202;2022-12-07T06:43:31;3.80;99.90
3281;DHT22;1652;51.318;6.202;2022-12-07T06:45:58;3.80;99.90
3281;DHT22;1652;51.318;6.202;2022-12-07T06:48:25;3.80;99.90
3281;DHT22;1652;51.318;6.202;2022-12-07T06:50:52;3.70;99.90
3281;DHT22;1652;51.318;6.202;2022-12-07T06:53:21;3.80;99.90
3281;DHT22;1652;51.318;6.202;2022-12-07T06:55:48;3.80;99.90
3281;DHT22;1652;51.318;6.202;2022-12-07T06:58:15;3.80;99.90
3281;DHT22;1652;51.318;6.202;2022-12-07T07:00:43;3.70;99.90
3281;DHT22;1652;51.318;6.202;2022-12-07T07:03:10;3.80;99.90
3281;DHT22;1652;51.318;6.202;2022-12-07T07:05:37;3.80;99.90
3281;DHT22;1652;51.318;6.202;2022-12-07T07:08:04;3.80;99.90
3281;DHT22;1652;51.318;6.202;2022-12-07T07:10:47;3.80;99.90
3281;DHT22;1652;51.318;6.202;2022-12-07T07:13:14;3.70;99.90
3281;DHT22;1652;51.318;6.202;2022-12-07T07:15:41;3.60;99.90
3281;DHT22;1652;51.318;6.202;2022-12-07T07:18:08;3.60;99.90
3281;DHT22;1652;51.318;6.202;2022-12-07T07:20:35;3.50;99.90
3281;DHT22;1652;51.318;6.202;2022-12-07T07:23:02;3.50;99.90
3281;DHT22;1652;51.318;6.202;2022-12-07T07:25:29;3.40;99.90
3281;DHT22;1652;51.318;6.202;2022-12-07T07:27:56;3.40;99.90
3281;DHT22;1652;51.318;6.202;2022-12-07T07:30:23;3.50;99.90
3281;DHT22;1652;51.318;6.202;2022-12-07T07:32:50;3.40;99.90
3281;DHT22;1652;51.318;6.202;2022-12-07T07:35:17;3.30;99.90
3281;DHT22;1652;51.318;6.202;2022-12-07T07:37:44;3.20;99.90
3281;DHT22;1652;51.318;6.202;2022-12-07T07:40:11;3.30;99.90
3281;DHT22;1652;51.318;6.202;2022-12-07T07:42:38;3.30;99.90
3281;DHT22;1652;51.318;6.202;2022-12-07T07:45:05;3.40;99.90
3281;DHT22;1652;51.318;6.202;2022-12-07T07:47:32;3.50;99.90
3281;DHT22;1652;51.318;6.202;2022-12-07T07:49:59;3.60;99.90
3281;DHT22;1652;51.318;6.202;2022-12-07T07:52:26;3.70;99.90
3281;DHT22;1652;51.318;6.202;2022-12-07T07:54:53;3.80;99.90
3281;DHT22;1652;51.318;6.202;2022-12-07T07:57:20;3.90;99.90
3281;DHT22;1652;51.318;6.202;2022-12-07T07:59:47;3.80;99.90
3281;DHT22;1652;51.318;6.202;2022-12-07T08:02:15;3.90;99.90
3281;DHT22;1652;51.318;6.202;2022-12-07T08:04:43;3.90;99.90
3281;DHT22;1652;51.318;6.202;2022-12-07T08:07:11;4.00;99.90
3281;DHT22;1652;51.318;6.202;2022-12-07T08:09:38;4.00;99.90
3281;DHT22;1652;51.318;6.202;2022-12-07T08:12:06;3.90;99.90
3281;DHT22;1652;51.318;6.202;2022-12-07T08:14:33;4.00;99.90
3281;DHT22;1652;51.318;6.202;2022-12-07T08:17:00;3.80;99.90
3281;DHT22;1652;51.318;6.202;2022-12-07T08:19:27;3.70;99.90
3281;DHT22;1652;51.318;6.202;2022-12-07T08:21:55;3.70;99.90
3281;DHT22;1652;51.318;6.202;2022-12-07T08:24:22;3.70;99.90
3281;DHT22;1652;51.318;6.202;2022-12-07T08:26:49;3.70;99.90
3281;DHT22;1652;51.318;6.202;2022-12-07T08:29:17;3.70;99.90
3281;DHT22;1652;51.318;6.202;2022-12-07T08:31:44;3.70;99.90
3281;DHT22;1652;51.318;6.202;2022-12-07T08:34:11;3.70;99.90
3281;DHT22;1652;51.318;6.202;2022-12-07T08:36:39;3.80;99.90
3281;DHT22;1652;51.318;6.202;2022-12-07T08:39:06;3.80;99.90
3281;DHT22;1652;51.318;6.202;2022-12-07T08:41:53;4.00;99.90
3281;DHT22;1652;51.318;6.202;2022-12-07T08:44:20;4.00;99.90
3281;DHT22;1652;51.318;6.202;2022-12-07T08:46:55;3.90;99.90
3281;DHT22;1652;51.318;6.202;2022-12-07T08:49:27;3.90;99.90
3281;DHT22;1652;51.318;6.202;2022-12-07T08:51:55;4.00;99.90
3281;DHT22;1652;51.318;6.202;2022-12-07T08:54:23;4.00;99.90
3281;DHT22;1652;51.318;6.202;2022-12-07T08:56:52;4.00;99.90
3281;DHT22;1652;51.318;6.202;2022-12-07T08:59:26;4.10;99.90
3281;DHT22;1652;51.318;6.202;2022-12-07T09:01:53;4.20;99.90
3281;DHT22;1652;51.318;6.202;2022-12-07T09:04:20;4.40;99.90
3281;DHT22;1652;51.318;6.202;2022-12-07T09:06:48;4.30;99.90
3281;DHT22;1652;51.318;6.202;2022-12-07T09:09:15;4.30;99.90
3281;DHT22;1652;51.318;6.202;2022-12-07T09:11:42;4.40;99.90
3281;DHT22;1652;51.318;6.202;2022-12-07T09:14:09;4.30;99.90
3281;DHT22;1652;51.318;6.202;2022-12-07T09:16:35;4.30;99.90
3281;DHT22;1652;51.318;6.202;2022-12-07T09:19:02;4.30;99.90
3281;DHT22;1652;51.318;6.202;2022-12-07T09:21:29;4.20;99.90
3281;DHT22;1652;51.318;6.202;2022-12-07T09:23:56;4.20;99.90
3281;DHT22;1652;51.318;6.202;2022-12-07T09:26:23;4.30;99.90
3281;DHT22;1652;51.318;6.202;2022-12-07T09:28:50;4.40;99.90
3281;DHT22;1652;51.318;6.202;2022-12-07T09:31:17;4.40;99.90
3281;DHT22;1652;51.318;6.202;2022-12-07T09:34:00;4.50;99.90
3281;DHT22;1652;51.318;6.202;2022-12-07T09:36:27;4.40;99.90
3281;DHT22;1652;51.318;6.202;2022-12-07T09:38:55;4.50;99.90
3281;DHT22;1652;51.318;6.202;2022-12-07T09:41:23;4.50;99.90
3281;DHT22;1652;51.318;6.202;2022-12-07T09:43:51;4.70;99.90
3281;DHT22;1652;51.318;6.202;2022-12-07T09:46:20;4.70;99.90
3281;DHT22;1652;51.318;6.202;2022-12-07T09:48:48;4.80;99.90
3281;DHT22;1652;51.318;6.202;2022-12-07T09:51:22;5.00;99.90
3281;DHT22;1652;51.318;6.202;2022-12-07T09:53:53;5.00;99.90
3281;DHT22;1652;51.318;6.202;2022-12-07T09:56:20;5.00;99.90
3281;DHT22;1652;51.318;6.202;2022-12-07T09:58:48;5.00;99.90
3281;DHT22;1652;51.318;6.202;2022-12-07T10:01:21;5.00;99.90
3281;DHT22;1652;51.318;6.202;2022-12-07T10:03:53;5.20;99.90
3281;DHT22;1652;51.318;6.202;2022-12-07T10:06:20;5.30;99.90
3281;DHT22;1652;51.318;6.202;2022-12-07T10:08:47;5.50;99.90
3281;DHT22;1652;51.318;6.202;2022-12-07T10:11:14;5.90;99.90
3281;DHT22;1652;51.318;6.202;2022-12-07T10:13:52;6.00;99.90
3281;DHT22;1652;51.318;6.202;2022-12-07T10:16:39;6.20;99.90
3281;DHT22;1652;51.318;6.202;2022-12-07T10:22:12;6.20;99.90
3281;DHT22;1652;51.318;6.202;2022-12-07T10:24:41;6.20;99.90
3281;DHT22;1652;51.318;6.202;2022-12-07T10:27:32;6.30;99.90
3281;DHT22;1652;51.318;6.202;2022-12-07T10:29:59;6.40;99.90
3281;DHT22;1652;51.318;6.202;2022-12-07T10:32:34;6.50;99.90
3281;DHT22;1652;51.318;6.202;2022-12-07T10:35:24;6.50;99.90
3281;DHT22;1652;51.318;6.202;2022-12-07T10:37:53;6.70;99.90
3281;DHT22;1652;51.318;6.202;2022-12-07T10:40:34;6.80;99.90
3281;DHT22;1652;51.318;6.202;2022-12-07T10:49:01;6.80;99.90
3281;DHT22;1652;51.318;6.202;2022-12-07T10:51:43;6.80;99.90
3281;DHT22;1652;51.318;6.202;2022-12-07T10:55:09;6.90;99.90
3281;DHT22;1652;51.318;6.202;2022-12-07T11:00:06;7.00;99.90
3281;DHT22;1652;51.318;6.202;2022-12-07T11:05:49;7.00;99.90
3281;DHT22;1652;51.318;6.202;2022-12-07T11:13:52;7.30;99.90
3281;DHT22;1652;51.318;6.202;2022-12-07T11:16:43;7.50;99.90
3281;DHT22;1652;51.318;6.202;2022-12-07T11:22:13;7.70;99.90
3281;DHT22;1652;51.318;6.202;2022-12-07T11:27:40;7.70;99.90
3281;DHT22;1652;51.318;6.202;2022-12-07T11:30:18;7.80;99.90
3281;DHT22;1652;51.318;6.202;2022-12-07T11:38:19;7.80;99.90
3281;DHT22;1652;51.318;6.202;2022-12-07T11:40:59;7.80;99.90
3281;DHT22;1652;51.318;6.202;2022-12-07T11:43:52;7.90;99.90
3281;DHT22;1652;51.318;6.202;2022-12-07T11:46:24;8.00;99.90
3281;DHT22;1652;51.318;6.202;2022-12-07T11:49:15;8.00;99.90
3281;DHT22;1652;51.318;6.202;2022-12-07T11:51:47;8.10;99.90
3281;DHT22;1652;51.318;6.202;2022-12-07T11:54:23;8.00;99.90
3281;DHT22;1652;51.318;6.202;2022-12-07T11:56:53;8.10;99.90
3281;DHT22;1652;51.318;6.202;2022-12-07T11:59:31;8.00;99.90
3281;DHT22;1652;51.318;6.202;2022-12-07T12:02:13;8.00;99.90
3281;DHT22;1652;51.318;6.202;2022-12-07T12:07:18;7.80;99.90
3281;DHT22;1652;51.318;6.202;2022-12-07T12:10:19;7.80;99.90
3281;DHT22;1652;51.318;6.202;2022-12-07T12:13:03;7.80;99.90
3281;DHT22;1652;51.318;6.202;2022-12-07T12:21:27;7.80;99.90
3281;DHT22;1652;51.318;6.202;2022-12-07T12:24:17;7.80;99.90
3281;DHT22;1652;51.318;6.202;2022-12-07T12:26:55;7.90;99.90
3281;DHT22;1652;51.318;6.202;2022-12-07T12:29:31;7.90;99.90
3281;DHT22;1652;51.318;6.202;2022-12-07T12:32:15;7.80;99.90
3281;DHT22;1652;51.318;6.202;2022-12-07T12:37:47;7.70;99.90
3281;DHT22;1652;51.318;6.202;2022-12-07T12:42:56;7.90;99.90
3281;DHT22;1652;51.318;6.202;2022-12-07T12:45:31;7.90;99.90
3281;DHT22;1652;51.318;6.202;2022-12-07T12:50:48;7.70;99.90
3281;DHT22;1652;51.318;6.202;2022-12-07T12:53:21;7.70;99.90
3281;DHT22;1652;51.318;6.202;2022-12-07T13:00:46;7.60;99.90
3281;DHT22;1652;51.318;6.202;2022-12-07T13:03:40;7.60;99.90
3281;DHT22;1652;51.318;6.202;2022-12-07T13:08:55;7.80;99.90
3281;DHT22;1652;51.318;6.202;2022-12-07T13:11:44;7.70;99.90
3281;DHT22;1652;51.318;6.202;2022-12-07T13:17:03;7.90;99.90
3281;DHT22;1652;51.318;6.202;2022-12-07T13:24:59;7.70;99.90
3281;DHT22;1652;51.318;6.202;2022-12-07T13:27:30;7.70;99.90
3281;DHT22;1652;51.318;6.202;2022-12-07T13:29:57;7.60;99.90
3281;DHT22;1652;51.318;6.202;2022-12-07T13:32:27;7.50;99.90
3281;DHT22;1652;51.318;6.202;2022-12-07T13:34:54;7.50;99.90
3281;DHT22;1652;51.318;6.202;2022-12-07T13:37:28;7.50;99.90
3281;DHT22;1652;51.318;6.202;2022-12-07T13:40:21;7.40;99.90
3281;DHT22;1652;51.318;6.202;2022-12-07T13:43:03;7.10;99.90
3281;DHT22;1652;51.318;6.202;2022-12-07T13:45:32;7.10;99.90
3281;DHT22;1652;51.318;6.202;2022-12-07T13:48:31;6.90;99.90
3281;DHT22;1652;51.318;6.202;2022-12-07T13:51:00;6.90;99.90
3281;DHT22;1652;51.318;6.202;2022-12-07T13:53:28;6.80;99.90
3281;DHT22;1652;51.318;6.202;2022-12-07T13:56:01;6.70;99.90
3281;DHT22;1652;51.318;6.202;2022-12-07T13:58:31;6.60;99.90
3281;DHT22;1652;51.318;6.202;2022-12-07T14:01:01;6.60;99.90
3281;DHT22;1652;51.318;6.202;2022-12-07T14:03:33;6.60;99.90
3281;DHT22;1652;51.318;6.202;2022-12-07T14:06:27;6.60;99.90
3281;DHT22;1652;51.318;6.202;2022-12-07T14:09:09;6.70;99.90
3281;DHT22;1652;51.318;6.202;2022-12-07T14:11:41;6.80;99.90
3281;DHT22;1652;51.318;6.202;2022-12-07T14:14:15;6.80;99.90
3281;DHT22;1652;51.318;6.202;2022-12-07T14:16:43;6.90;99.90
3281;DHT22;1652;51.318;6.202;2022-12-07T14:19:46;6.90;99.90
3281;DHT22;1652;51.318;6.202;2022-12-07T14:24:57;6.90;99.90
3281;DHT22;1652;51.318;6.202;2022-12-07T14:27:24;6.90;99.90
3281;DHT22;1652;51.318;6.202;2022-12-07T14:29:57;6.80;99.90
3281;DHT22;1652;51.318;6.202;2022-12-07T14:32:26;6.90;99.90
3281;DHT22;1652;51.318;6.202;2022-12-07T14:35:11;6.80;99.90
3281;DHT22;1652;51.318;6.202;2022-12-07T14:37:39;6.70;99.90
3281;DHT22;1652;51.318;6.202;2022-12-07T14:40:07;6.70;99.90
3281;DHT22;1652;51.318;6.202;2022-12-07T14:42:34;6.50;99.90
3281;DHT22;1652;51.318;6.202;2022-12-07T14:45:01;6.50;99.90
3281;DHT22;1652;51.318;6.202;2022-12-07T14:47:29;6.50;99.90
3281;DHT22;1652;51.318;6.202;2022-12-07T14:50:18;6.40;99.90
3281;DHT22;1652;51.318;6.202;2022-12-07T14:53:00;6.40;99.90
3281;DHT22;1652;51.318;6.202;2022-12-07T14:55:48;6.50;99.90
3281;DHT22;1652;51.318;6.202;2022-12-07T14:58:17;6.60;99.90
3281;DHT22;1652;51.318;6.202;2022-12-07T15:00:44;6.60;99.90
3281;DHT22;1652;51.318;6.202;2022-12-07T15:03:11;6.60;99.90
3281;DHT22;1652;51.318;6.202;2022-12-07T15:05:40;6.60;99.90
3281;DHT22;1652;51.318;6.202;2022-12-07T15:08:12;6.40;99.90
3281;DHT22;1652;51.318;6.202;2022-12-07T15:10:39;6.20;99.90
3281;DHT22;1652;51.318;6.202;2022-12-07T15:13:07;6.10;99.90
3281;DHT22;1652;51.318;6.202;2022-12-07T15:15:53;6.00;99.90
3281;DHT22;1652;51.318;6.202;2022-12-07T15:18:22;5.90;99.90
3281;DHT22;1652;51.318;6.202;2022-12-07T15:20:49;5.90;99.90
3281;DHT22;1652;51.318;6.202;2022-12-07T15:23:17;5.80;99.90
3281;DHT22;1652;51.318;6.202;2022-12-07T15:25:45;5.80;99.90
3281;DHT22;1652;51.318;6.202;2022-12-07T15:28:12;5.80;99.90
3281;DHT22;1652;51.318;6.202;2022-12-07T15:30:41;5.80;99.90
3281;DHT22;1652;51.318;6.202;2022-12-07T15:33:10;5.90;99.90
3281;DHT22;1652;51.318;6.202;2022-12-07T15:35:44;5.90;99.90
3281;DHT22;1652;51.318;6.202;2022-12-07T15:38:11;5.90;99.90
3281;DHT22;1652;51.318;6.202;2022-12-07T15:40:38;5.80;99.90
3281;DHT22;1652;51.318;6.202;2022-12-07T15:43:07;5.80;99.90
3281;DHT22;1652;51.318;6.202;2022-12-07T15:45:54;5.80;99.90
3281;DHT22;1652;51.318;6.202;2022-12-07T15:48:21;5.70;99.90
3281;DHT22;1652;51.318;6.202;2022-12-07T15:51:03;5.70;99.90
3281;DHT22;1652;51.318;6.202;2022-12-07T15:53:30;5.70;99.90
3281;DHT22;1652;51.318;6.202;2022-12-07T15:55:57;5.70;99.90
3281;DHT22;1652;51.318;6.202;2022-12-07T15:58:24;5.60;99.90
3281;DHT22;1652;51.318;6.202;2022-12-07T16:00:51;5.70;99.90
3281;DHT22;1652;51.318;6.202;2022-12-07T16:03:18;5.70;99.90
3281;DHT22;1652;51.318;6.202;2022-12-07T16:05:49;5.60;99.90
3281;DHT22;1652;51.318;6.202;2022-12-07T16:08:16;5.70;99.90
3281;DHT22;1652;51.318;6.202;2022-12-07T16:10:43;5.60;99.90
3281;DHT22;1652;51.318;6.202;2022-12-07T16:13:11;5.70;99.90
3281;DHT22;1652;51.318;6.202;2022-12-07T16:15:41;5.70;99.90
3281;DHT22;1652;51.318;6.202;2022-12-07T16:18:09;5.60;99.90
3281;DHT22;1652;51.318;6.202;2022-12-07T16:20:35;5.60;99.90
3281;DHT22;1652;51.318;6.202;2022-12-07T16:23:02;5.60;99.90
3281;DHT22;1652;51.318;6.202;2022-12-07T16:25:29;5.60;99.90
3281;DHT22;1652;51.318;6.202;2022-12-07T16:27:56;5.60;99.90
3281;DHT22;1652;51.318;6.202;2022-12-07T16:30:23;5.60;99.90
3281;DHT22;1652;51.318;6.202;2022-12-07T16:32:49;5.70;99.90
3281;DHT22;1652;51.318;6.202;2022-12-07T16:35:17;5.60;99.90
3281;DHT22;1652;51.318;6.202;2022-12-07T16:37:43;5.60;99.90
3281;DHT22;1652;51.318;6.202;2022-12-07T16:40:11;5.60;99.90
3281;DHT22;1652;51.318;6.202;2022-12-07T16:42:38;5.60;99.90
3281;DHT22;1652;51.318;6.202;2022-12-07T16:45:05;5.60;99.90
3281;DHT22;1652;51.318;6.202;2022-12-07T16:47:32;5.60;99.90
3281;DHT22;1652;51.318;6.202;2022-12-07T16:49:59;5.60;99.90
3281;DHT22;1652;51.318;6.202;2022-12-07T16:52:25;5.60;99.90
3281;DHT22;1652;51.318;6.202;2022-12-07T16:54:52;5.60;99.90
3281;DHT22;1652;51.318;6.202;2022-12-07T16:57:19;5.60;99.90
3281;DHT22;1652;51.318;6.202;2022-12-07T16:59:50;5.60;99.90
3281;DHT22;1652;51.318;6.202;2022-12-07T17:02:17;5.60;99.90
3281;DHT22;1652;51.318;6.202;2022-12-07T17:04:44;5.70;99.90
3281;DHT22;1652;51.318;6.202;2022-12-07T17:07:11;5.70;99.90
3281;DHT22;1652;51.318;6.202;2022-12-07T17:09:38;5.80;99.90
3281;DHT22;1652;51.318;6.202;2022-12-07T17:12:05;5.70;99.90
3281;DHT22;1652;51.318;6.202;2022-12-07T17:14:33;5.70;99.90
3281;DHT22;1652;51.318;6.202;2022-12-07T17:17:19;5.70;99.90
3281;DHT22;1652;51.318;6.202;2022-12-07T17:19:45;5.70;99.90
3281;DHT22;1652;51.318;6.202;2022-12-07T17:22:12;5.60;99.90
3281;DHT22;1652;51.318;6.202;2022-12-07T17:24:39;5.60;99.90
3281;DHT22;1652;51.318;6.202;2022-12-07T17:27:06;5.60;99.90
3281;DHT22;1652;51.318;6.202;2022-12-07T17:29:33;5.60;99.90
3281;DHT22;1652;51.318;6.202;2022-12-07T17:31:59;5.50;99.90
3281;DHT22;1652;51.318;6.202;2022-12-07T17:34:26;5.50;99.90
3281;DHT22;1652;51.318;6.202;2022-12-07T17:36:53;5.40;99.90
3281;DHT22;1652;51.318;6.202;2022-12-07T17:39:21;5.40;99.90
3281;DHT22;1652;51.318;6.202;2022-12-07T17:41:48;5.30;99.90
3281;DHT22;1652;51.318;6.202;2022-12-07T17:44:33;5.40;99.90
3281;DHT22;1652;51.318;6.202;2022-12-07T17:47:00;5.30;99.90
3281;DHT22;1652;51.318;6.202;2022-12-07T17:49:29;5.30;99.90
3281;DHT22;1652;51.318;6.202;2022-12-07T17:51:56;5.30;99.90
3281;DHT22;1652;51.318;6.202;2022-12-07T17:54:42;5.20;99.90
3281;DHT22;1652;51.318;6.202;2022-12-07T17:59:41;5.30;99.90
3281;DHT22;1652;51.318;6.202;2022-12-07T18:02:09;5.40;99.90
3281;DHT22;1652;51.318;6.202;2022-12-07T18:04:35;5.30;99.90
3281;DHT22;1652;51.318;6.202;2022-12-07T18:07:02;5.30;99.90
3281;DHT22;1652;51.318;6.202;2022-12-07T18:09:32;5.20;99.90
3281;DHT22;1652;51.318;6.202;2022-12-07T18:11:58;5.20;99.90
3281;DHT22;1652;51.318;6.202;2022-12-07T18:14:25;5.10;99.90
3281;DHT22;1652;51.318;6.202;2022-12-07T18:16:52;5.10;99.90
3281;DHT22;1652;51.318;6.202;2022-12-07T18:19:19;5.00;99.90
3281;DHT22;1652;51.318;6.202;2022-12-07T18:21:46;5.00;99.90